GLD769 SBVT-SBBR
Flight info
| Callsign | GLD769 |
|---|---|
| Flight time | 1h 27m |
| Altitude | 34000 |
| Route | VAPO1C OPLOX UZ40 OPGOL SIPI2A |
| Aircraft | B738/M-SDFGIRY/S |
Departure
| Time | 2026-04-24 23:51 |
|---|---|
| Airport | Eurico de Aguiar Salles International Airport (SBVT) |
Arrival
| Time | 2026-04-25 01:19 |
|---|---|
| Airport | Presidente Juscelino Kubitschek International Airport (SBBR) |
| Time | Latitude | Longitude | Altitude | Speed | Heading |
|---|---|---|---|---|---|
| 2026-04-24 23:28 | -20.26459 | -40.28179 | 17 ft | 0 kts | 262° |
| 2026-04-24 23:41 | -20.26457 | -40.28158 | 17 ft | 4 kts | 270° |
| 2026-04-24 23:42 | -20.26460 | -40.28130 | 17 ft | 4 kts | 290° |
| 2026-04-24 23:42 | -20.26473 | -40.28108 | 19 ft | 4 kts | 332° |
| 2026-04-24 23:42 | -20.26483 | -40.28104 | 20 ft | 0 kts | 352° |
| 2026-04-24 23:46 | -20.26470 | -40.28104 | 19 ft | 6 kts | 5° |
| 2026-04-24 23:46 | -20.26399 | -40.28113 | 18 ft | 8 kts | 350° |
| 2026-04-24 23:46 | -20.26334 | -40.28098 | 17 ft | 12 kts | 39° |
| 2026-04-24 23:46 | -20.26242 | -40.28076 | 18 ft | 16 kts | 354° |
| 2026-04-24 23:47 | -20.26118 | -40.28095 | 17 ft | 20 kts | 352° |
| 2026-04-24 23:47 | -20.25968 | -40.28116 | 17 ft | 23 kts | 353° |
| 2026-04-24 23:47 | -20.25795 | -40.28142 | 18 ft | 27 kts | 353° |
| 2026-04-24 23:47 | -20.25653 | -40.28163 | 19 ft | 20 kts | 352° |
| 2026-04-24 23:48 | -20.25509 | -40.28184 | 17 ft | 21 kts | 352° |
| 2026-04-24 23:48 | -20.25361 | -40.28206 | 17 ft | 22 kts | 352° |
| 2026-04-24 23:48 | -20.25228 | -40.28227 | 17 ft | 15 kts | 350° |
| 2026-04-24 23:48 | -20.25137 | -40.28238 | 18 ft | 13 kts | 6° |
| 2026-04-24 23:49 | -20.25058 | -40.28201 | 18 ft | 9 kts | 33° |
| 2026-04-24 23:49 | -20.24997 | -40.28162 | 17 ft | 11 kts | 30° |
| 2026-04-24 23:49 | -20.24921 | -40.28122 | 19 ft | 12 kts | 20° |
| 2026-04-24 23:49 | -20.24837 | -40.28094 | 17 ft | 13 kts | 22° |
| 2026-04-24 23:50 | -20.24804 | -40.28108 | 18 ft | 2 kts | 206° |
| 2026-04-24 23:50 | -20.24808 | -40.28108 | 18 ft | 0 kts | 185° |
| 2026-04-24 23:50 | -20.24810 | -40.28108 | 18 ft | 1 kts | 185° |
| 2026-04-24 23:50 | -20.24821 | -40.28107 | 19 ft | 1 kts | 174° |
| 2026-04-24 23:51 | -20.25076 | -40.28071 | 19 ft | 78 kts | 172° |
| 2026-04-24 23:51 | -20.25874 | -40.27951 | 22 ft | 151 kts | 172° |
| 2026-04-24 23:51 | -20.27087 | -40.27823 | 355 ft | 186 kts | 176° |
| 2026-04-24 23:51 | -20.28397 | -40.27678 | 1278 ft | 189 kts | 171° |
| 2026-04-24 23:52 | -20.29726 | -40.27447 | 2083 ft | 205 kts | 171° |
| 2026-04-24 23:52 | -20.31219 | -40.27200 | 2328 ft | 229 kts | 171° |
| 2026-04-24 23:52 | -20.32836 | -40.26944 | 2621 ft | 251 kts | 171° |
| 2026-04-24 23:52 | -20.34620 | -40.26670 | 3184 ft | 263 kts | 171° |
| 2026-04-24 23:53 | -20.36456 | -40.26674 | 3994 ft | 269 kts | 195° |
| 2026-04-24 23:53 | -20.38068 | -40.27665 | 4843 ft | 272 kts | 225° |
| 2026-04-24 23:53 | -20.39065 | -40.29368 | 5671 ft | 274 kts | 253° |
| 2026-04-24 23:53 | -20.39220 | -40.31368 | 6574 ft | 272 kts | 280° |
| 2026-04-24 23:54 | -20.38542 | -40.33247 | 7358 ft | 275 kts | 301° |
| 2026-04-24 23:54 | -20.37494 | -40.34963 | 7847 ft | 277 kts | 304° |
| 2026-04-24 23:54 | -20.36388 | -40.36657 | 8108 ft | 281 kts | 304° |
| 2026-04-24 23:54 | -20.35262 | -40.38369 | 8100 ft | 281 kts | 304° |
| 2026-04-24 23:55 | -20.34150 | -40.40071 | 8118 ft | 280 kts | 304° |
| 2026-04-24 23:55 | -20.33044 | -40.41778 | 8131 ft | 279 kts | 304° |
| 2026-04-24 23:55 | -20.31945 | -40.43485 | 8124 ft | 279 kts | 303° |
| 2026-04-24 23:55 | -20.30850 | -40.45192 | 8133 ft | 279 kts | 303° |
| 2026-04-24 23:56 | -20.29755 | -40.46904 | 8131 ft | 280 kts | 303° |
| 2026-04-24 23:56 | -20.28659 | -40.48620 | 8126 ft | 280 kts | 303° |
| 2026-04-24 23:56 | -20.27564 | -40.50334 | 8147 ft | 280 kts | 303° |
| 2026-04-24 23:56 | -20.26471 | -40.52045 | 8125 ft | 280 kts | 303° |
| 2026-04-24 23:57 | -20.25376 | -40.53758 | 8143 ft | 279 kts | 303° |
| 2026-04-24 23:57 | -20.24252 | -40.55446 | 8156 ft | 281 kts | 307° |
| 2026-04-24 23:57 | -20.23001 | -40.57062 | 8650 ft | 285 kts | 309° |
| 2026-04-24 23:57 | -20.21724 | -40.58650 | 9596 ft | 281 kts | 309° |
| 2026-04-24 23:58 | -20.20451 | -40.60227 | 10405 ft | 282 kts | 309° |
| 2026-04-24 23:58 | -20.19127 | -40.61872 | 10672 ft | 304 kts | 309° |
| 2026-04-24 23:58 | -20.17705 | -40.63647 | 10878 ft | 326 kts | 309° |
| 2026-04-24 23:58 | -20.16207 | -40.65522 | 11328 ft | 337 kts | 310° |
| 2026-04-24 23:59 | -20.14678 | -40.67439 | 11924 ft | 342 kts | 310° |
| 2026-04-24 23:59 | -20.13126 | -40.69387 | 12534 ft | 347 kts | 310° |
| 2026-04-24 23:59 | -20.11559 | -40.71356 | 13129 ft | 351 kts | 310° |
| 2026-04-24 23:59 | -20.09970 | -40.73352 | 13703 ft | 356 kts | 310° |
| 2026-04-25 00:00 | -20.08374 | -40.75357 | 14202 ft | 361 kts | 310° |
| 2026-04-25 00:00 | -20.06742 | -40.77408 | 14721 ft | 364 kts | 310° |
| 2026-04-25 00:00 | -20.05099 | -40.79473 | 15276 ft | 367 kts | 310° |
| 2026-04-25 00:00 | -20.03445 | -40.81550 | 15805 ft | 370 kts | 311° |
| 2026-04-25 00:01 | -20.01776 | -40.83647 | 16312 ft | 373 kts | 311° |
| 2026-04-25 00:01 | -20.00093 | -40.85760 | 16817 ft | 376 kts | 311° |
| 2026-04-25 00:01 | -19.98391 | -40.87895 | 17314 ft | 379 kts | 311° |
| 2026-04-25 00:01 | -19.96680 | -40.90041 | 17800 ft | 382 kts | 311° |
| 2026-04-25 00:02 | -19.94955 | -40.92205 | 18308 ft | 386 kts | 311° |
| 2026-04-25 00:02 | -19.93209 | -40.94393 | 18724 ft | 388 kts | 310° |
| 2026-04-25 00:02 | -19.91460 | -40.96586 | 19142 ft | 391 kts | 310° |
| 2026-04-25 00:02 | -19.89695 | -40.98798 | 19553 ft | 393 kts | 310° |
| 2026-04-25 00:03 | -19.87920 | -41.01020 | 19962 ft | 396 kts | 310° |
| 2026-04-25 00:03 | -19.86139 | -41.03265 | 20368 ft | 398 kts | 307° |
| 2026-04-25 00:03 | -19.84592 | -41.05716 | 20772 ft | 400 kts | 298° |
| 2026-04-25 00:03 | -19.83257 | -41.08314 | 21176 ft | 402 kts | 296° |
| 2026-04-25 00:04 | -19.81960 | -41.10958 | 21555 ft | 405 kts | 296° |
| 2026-04-25 00:04 | -19.80698 | -41.13494 | 21952 ft | 407 kts | 297° |
| 2026-04-25 00:04 | -19.79342 | -41.16142 | 22355 ft | 409 kts | 297° |
| 2026-04-25 00:04 | -19.77958 | -41.18787 | 22733 ft | 411 kts | 297° |
| 2026-04-25 00:05 | -19.76555 | -41.21445 | 23127 ft | 414 kts | 297° |
| 2026-04-25 00:05 | -19.75169 | -41.24075 | 23502 ft | 416 kts | 297° |
| 2026-04-25 00:05 | -19.73762 | -41.26770 | 23847 ft | 417 kts | 296° |
| 2026-04-25 00:05 | -19.72354 | -41.29474 | 24156 ft | 420 kts | 296° |
| 2026-04-25 00:06 | -19.70941 | -41.32191 | 24477 ft | 421 kts | 296° |
| 2026-04-25 00:06 | -19.69522 | -41.34916 | 24804 ft | 423 kts | 296° |
| 2026-04-25 00:06 | -19.68096 | -41.37651 | 25114 ft | 424 kts | 296° |
| 2026-04-25 00:06 | -19.66664 | -41.40395 | 25422 ft | 426 kts | 296° |
| 2026-04-25 00:07 | -19.65227 | -41.43147 | 25719 ft | 428 kts | 296° |
| 2026-04-25 00:07 | -19.63776 | -41.45912 | 26027 ft | 429 kts | 297° |
| 2026-04-25 00:07 | -19.62314 | -41.48687 | 26333 ft | 431 kts | 297° |
| 2026-04-25 00:07 | -19.60846 | -41.51469 | 26628 ft | 433 kts | 297° |
| 2026-04-25 00:08 | -19.59373 | -41.54261 | 26915 ft | 435 kts | 297° |
| 2026-04-25 00:08 | -19.57896 | -41.57058 | 27192 ft | 436 kts | 297° |
| 2026-04-25 00:08 | -19.56410 | -41.59874 | 27476 ft | 438 kts | 297° |
| 2026-04-25 00:08 | -19.54920 | -41.62698 | 27761 ft | 440 kts | 297° |
| 2026-04-25 00:09 | -19.53422 | -41.65534 | 28016 ft | 441 kts | 297° |
| 2026-04-25 00:09 | -19.51918 | -41.68380 | 28293 ft | 443 kts | 297° |
| 2026-04-25 00:09 | -19.50410 | -41.71234 | 28549 ft | 445 kts | 297° |
| 2026-04-25 00:09 | -19.48895 | -41.74098 | 28808 ft | 446 kts | 297° |
| 2026-04-25 00:10 | -19.47398 | -41.76929 | 29063 ft | 447 kts | 297° |
| 2026-04-25 00:10 | -19.45872 | -41.79812 | 29282 ft | 449 kts | 297° |
| 2026-04-25 00:10 | -19.44340 | -41.82707 | 29502 ft | 451 kts | 297° |
| 2026-04-25 00:10 | -19.42798 | -41.85618 | 29749 ft | 453 kts | 297° |
| 2026-04-25 00:11 | -19.41256 | -41.88527 | 29989 ft | 454 kts | 297° |
| 2026-04-25 00:11 | -19.40208 | -41.90504 | 30137 ft | 456 kts | 297° |
| 2026-04-25 00:11 | -19.38151 | -41.94393 | 30399 ft | 457 kts | 297° |
| 2026-04-25 00:11 | -19.36595 | -41.97338 | 30577 ft | 459 kts | 297° |
| 2026-04-25 00:12 | -19.35030 | -42.00297 | 30764 ft | 460 kts | 297° |
| 2026-04-25 00:12 | -19.33465 | -42.03252 | 30980 ft | 461 kts | 297° |
| 2026-04-25 00:12 | -19.31857 | -42.06196 | 31256 ft | 460 kts | 298° |
| 2026-04-25 00:12 | -19.30229 | -42.09109 | 31551 ft | 459 kts | 298° |
| 2026-04-25 00:13 | -19.28605 | -42.12010 | 31817 ft | 458 kts | 298° |
| 2026-04-25 00:13 | -19.26985 | -42.14918 | 32054 ft | 459 kts | 298° |
| 2026-04-25 00:13 | -19.25354 | -42.17822 | 32303 ft | 459 kts | 298° |
| 2026-04-25 00:13 | -19.23716 | -42.20724 | 32582 ft | 458 kts | 298° |
| 2026-04-25 00:14 | -19.22081 | -42.23613 | 32880 ft | 457 kts | 298° |
| 2026-04-25 00:14 | -19.20448 | -42.26500 | 33139 ft | 457 kts | 298° |
| 2026-04-25 00:14 | -19.18817 | -42.29385 | 33398 ft | 457 kts | 298° |
| 2026-04-25 00:14 | -19.17188 | -42.32268 | 33661 ft | 456 kts | 298° |
| 2026-04-25 00:15 | -19.15583 | -42.35110 | 33922 ft | 456 kts | 298° |
| 2026-04-25 00:15 | -19.13936 | -42.38025 | 34086 ft | 458 kts | 298° |
| 2026-04-25 00:15 | -19.10667 | -42.43803 | 34079 ft | 461 kts | 298° |
| 2026-04-25 00:16 | -19.07519 | -42.49654 | 34078 ft | 454 kts | 296° |
| 2026-04-25 00:16 | -19.04505 | -42.55513 | 34106 ft | 453 kts | 296° |
| 2026-04-25 00:17 | -19.01480 | -42.61345 | 34099 ft | 452 kts | 296° |
| 2026-04-25 00:17 | -18.98437 | -42.67160 | 34102 ft | 452 kts | 296° |
| 2026-04-25 00:18 | -18.95387 | -42.72976 | 34111 ft | 453 kts | 296° |
| 2026-04-25 00:18 | -18.92329 | -42.78798 | 34112 ft | 454 kts | 297° |
| 2026-04-25 00:19 | -18.89182 | -42.84543 | 34109 ft | 455 kts | 298° |
| 2026-04-25 00:19 | -18.85974 | -42.90312 | 34117 ft | 456 kts | 298° |
| 2026-04-25 00:20 | -18.82773 | -42.96100 | 34111 ft | 457 kts | 298° |
| 2026-04-25 00:20 | -18.79567 | -43.01909 | 34110 ft | 458 kts | 298° |
| 2026-04-25 00:21 | -18.76385 | -43.07745 | 34115 ft | 459 kts | 297° |
| 2026-04-25 00:21 | -18.73239 | -43.13619 | 34112 ft | 460 kts | 297° |
| 2026-04-25 00:22 | -18.70085 | -43.19488 | 34113 ft | 460 kts | 297° |
| 2026-04-25 00:22 | -18.66944 | -43.25361 | 34110 ft | 459 kts | 297° |
| 2026-04-25 00:23 | -18.63906 | -43.31240 | 34115 ft | 459 kts | 296° |
| 2026-04-25 00:23 | -18.60820 | -43.37114 | 34116 ft | 457 kts | 297° |
| 2026-04-25 00:24 | -18.57718 | -43.42892 | 34111 ft | 448 kts | 297° |
| 2026-04-25 00:24 | -18.54664 | -43.48595 | 34126 ft | 446 kts | 297° |
| 2026-04-25 00:25 | -18.51627 | -43.54277 | 34129 ft | 444 kts | 297° |
| 2026-04-25 00:25 | -18.48664 | -43.59983 | 34126 ft | 443 kts | 295° |
| 2026-04-25 00:26 | -18.45770 | -43.65722 | 34127 ft | 444 kts | 296° |
| 2026-04-25 00:26 | -18.42810 | -43.71431 | 34132 ft | 445 kts | 297° |
| 2026-04-25 00:27 | -18.39863 | -43.77117 | 34122 ft | 446 kts | 297° |
| 2026-04-25 00:27 | -18.36894 | -43.82863 | 34120 ft | 447 kts | 296° |
| 2026-04-25 00:28 | -18.33911 | -43.88629 | 34115 ft | 449 kts | 297° |
| 2026-04-25 00:28 | -18.31411 | -43.93463 | 34104 ft | 449 kts | 297° |
| 2026-04-25 00:29 | -18.28438 | -43.99211 | 34097 ft | 450 kts | 297° |
| 2026-04-25 00:29 | -18.25442 | -44.05000 | 34096 ft | 451 kts | 297° |
| 2026-04-25 00:30 | -18.22440 | -44.10795 | 34088 ft | 451 kts | 297° |
| 2026-04-25 00:30 | -18.19436 | -44.16586 | 34086 ft | 451 kts | 297° |
| 2026-04-25 00:31 | -18.16433 | -44.22373 | 34080 ft | 451 kts | 297° |
| 2026-04-25 00:31 | -18.13429 | -44.28156 | 34072 ft | 450 kts | 297° |
| 2026-04-25 00:32 | -18.10435 | -44.33915 | 34072 ft | 449 kts | 297° |
| 2026-04-25 00:32 | -18.07443 | -44.39667 | 34078 ft | 448 kts | 297° |
| 2026-04-25 00:33 | -18.04440 | -44.45411 | 34070 ft | 448 kts | 297° |
| 2026-04-25 00:33 | -18.01380 | -44.51111 | 34076 ft | 448 kts | 298° |
| 2026-04-25 00:34 | -17.98328 | -44.56773 | 34073 ft | 447 kts | 297° |
| 2026-04-25 00:34 | -17.95269 | -44.62461 | 34071 ft | 447 kts | 297° |
| 2026-04-25 00:35 | -17.92212 | -44.68152 | 34071 ft | 447 kts | 297° |
| 2026-04-25 00:35 | -17.89147 | -44.73852 | 34074 ft | 448 kts | 298° |
| 2026-04-25 00:36 | -17.86114 | -44.79565 | 34071 ft | 448 kts | 297° |
| 2026-04-25 00:36 | -17.83143 | -44.85323 | 34068 ft | 449 kts | 297° |
| 2026-04-25 00:37 | -17.80166 | -44.91092 | 34076 ft | 449 kts | 297° |
| 2026-04-25 00:37 | -17.77177 | -44.96856 | 34062 ft | 451 kts | 297° |
| 2026-04-25 00:38 | -17.74171 | -45.02640 | 34066 ft | 452 kts | 297° |
| 2026-04-25 00:38 | -17.71162 | -45.08426 | 34066 ft | 452 kts | 297° |
| 2026-04-25 00:39 | -17.68147 | -45.14219 | 34064 ft | 453 kts | 297° |
| 2026-04-25 00:39 | -17.65059 | -45.19934 | 34065 ft | 454 kts | 300° |
| 2026-04-25 00:40 | -17.61706 | -45.25541 | 34063 ft | 454 kts | 301° |
| 2026-04-25 00:40 | -17.58321 | -45.31139 | 34065 ft | 454 kts | 301° |
| 2026-04-25 00:41 | -17.54967 | -45.36744 | 34063 ft | 454 kts | 301° |
| 2026-04-25 00:41 | -17.51619 | -45.42367 | 34065 ft | 454 kts | 301° |
| 2026-04-25 00:42 | -17.48275 | -45.47987 | 34063 ft | 454 kts | 301° |
| 2026-04-25 00:42 | -17.44930 | -45.53602 | 34064 ft | 454 kts | 301° |
| 2026-04-25 00:43 | -17.41580 | -45.59219 | 34051 ft | 455 kts | 301° |
| 2026-04-25 00:43 | -17.38229 | -45.64832 | 34059 ft | 455 kts | 301° |
| 2026-04-25 00:44 | -17.34874 | -45.70450 | 34051 ft | 455 kts | 301° |
| 2026-04-25 00:44 | -17.31536 | -45.76033 | 34049 ft | 455 kts | 301° |
| 2026-04-25 00:45 | -17.28171 | -45.81646 | 34045 ft | 455 kts | 301° |
| 2026-04-25 00:45 | -17.24801 | -45.87252 | 34036 ft | 456 kts | 301° |
| 2026-04-25 00:46 | -17.21426 | -45.92863 | 34043 ft | 456 kts | 301° |
| 2026-04-25 00:47 | -17.16361 | -46.01278 | 34044 ft | 456 kts | 301° |
| 2026-04-25 00:47 | -17.12975 | -46.06899 | 34040 ft | 456 kts | 301° |
| 2026-04-25 00:48 | -17.09591 | -46.12513 | 34038 ft | 456 kts | 301° |
| 2026-04-25 00:48 | -17.06201 | -46.18132 | 34035 ft | 457 kts | 302° |
| 2026-04-25 00:49 | -17.02829 | -46.23716 | 34040 ft | 457 kts | 302° |
| 2026-04-25 00:49 | -16.99433 | -46.29336 | 34038 ft | 457 kts | 302° |
| 2026-04-25 00:50 | -16.96035 | -46.34954 | 34042 ft | 458 kts | 302° |
| 2026-04-25 00:50 | -16.92632 | -46.40576 | 34042 ft | 458 kts | 302° |
| 2026-04-25 00:51 | -16.89226 | -46.46199 | 34040 ft | 458 kts | 302° |
| 2026-04-25 00:51 | -16.85816 | -46.51826 | 34043 ft | 458 kts | 302° |
| 2026-04-25 00:52 | -16.82404 | -46.57447 | 34049 ft | 458 kts | 303° |
| 2026-04-25 00:52 | -16.78872 | -46.62961 | 34028 ft | 449 kts | 304° |
| 2026-04-25 00:52 | -16.77129 | -46.65609 | 33878 ft | 439 kts | 305° |
| 2026-04-25 00:53 | -16.75413 | -46.68215 | 33593 ft | 431 kts | 304° |
| 2026-04-25 00:53 | -16.73722 | -46.70791 | 33193 ft | 428 kts | 305° |
| 2026-04-25 00:53 | -16.72049 | -46.73347 | 32833 ft | 425 kts | 305° |
| 2026-04-25 00:53 | -16.70393 | -46.75887 | 32456 ft | 422 kts | 304° |
| 2026-04-25 00:54 | -16.68751 | -46.78406 | 32082 ft | 419 kts | 304° |
| 2026-04-25 00:54 | -16.67117 | -46.80916 | 31710 ft | 417 kts | 304° |
| 2026-04-25 00:54 | -16.65493 | -46.83411 | 31337 ft | 415 kts | 304° |
| 2026-04-25 00:54 | -16.63890 | -46.85871 | 30900 ft | 415 kts | 304° |
| 2026-04-25 00:55 | -16.62273 | -46.88353 | 30523 ft | 413 kts | 304° |
| 2026-04-25 00:55 | -16.60657 | -46.90833 | 30145 ft | 412 kts | 304° |
| 2026-04-25 00:55 | -16.59048 | -46.93300 | 29713 ft | 410 kts | 304° |
| 2026-04-25 00:55 | -16.57448 | -46.95753 | 29312 ft | 408 kts | 304° |
| 2026-04-25 00:56 | -16.55862 | -46.98184 | 28923 ft | 405 kts | 304° |
| 2026-04-25 00:56 | -16.54283 | -47.00602 | 28537 ft | 402 kts | 304° |
| 2026-04-25 00:56 | -16.52714 | -47.03005 | 28154 ft | 399 kts | 304° |
| 2026-04-25 00:56 | -16.51156 | -47.05390 | 27782 ft | 397 kts | 304° |
| 2026-04-25 00:57 | -16.49609 | -47.07758 | 27416 ft | 394 kts | 304° |
| 2026-04-25 00:57 | -16.48072 | -47.10111 | 27041 ft | 392 kts | 304° |
| 2026-04-25 00:57 | -16.46542 | -47.12449 | 26675 ft | 389 kts | 304° |
| 2026-04-25 00:57 | -16.45021 | -47.14775 | 26311 ft | 387 kts | 304° |
| 2026-04-25 00:58 | -16.43511 | -47.17085 | 25950 ft | 385 kts | 304° |
| 2026-04-25 00:58 | -16.42012 | -47.19376 | 25587 ft | 383 kts | 305° |
| 2026-04-25 00:58 | -16.40549 | -47.21611 | 25220 ft | 382 kts | 305° |
| 2026-04-25 00:58 | -16.39040 | -47.23888 | 24853 ft | 381 kts | 308° |
| 2026-04-25 00:59 | -16.37164 | -47.25803 | 24514 ft | 377 kts | 322° |
| 2026-04-25 00:59 | -16.35202 | -47.27410 | 24176 ft | 375 kts | 323° |
| 2026-04-25 00:59 | -16.33151 | -47.29081 | 23823 ft | 374 kts | 323° |
| 2026-04-25 00:59 | -16.31111 | -47.30753 | 23403 ft | 373 kts | 322° |
| 2026-04-25 01:00 | -16.29081 | -47.32428 | 23025 ft | 371 kts | 322° |
| 2026-04-25 01:00 | -16.27070 | -47.34098 | 22648 ft | 369 kts | 322° |
| 2026-04-25 01:00 | -16.25075 | -47.35759 | 22286 ft | 366 kts | 322° |
| 2026-04-25 01:00 | -16.23094 | -47.37413 | 21928 ft | 363 kts | 322° |
| 2026-04-25 01:01 | -16.21132 | -47.39051 | 21576 ft | 361 kts | 322° |
| 2026-04-25 01:01 | -16.19202 | -47.40663 | 21239 ft | 359 kts | 322° |
| 2026-04-25 01:01 | -16.17238 | -47.42303 | 20882 ft | 357 kts | 322° |
| 2026-04-25 01:01 | -16.15307 | -47.43915 | 20540 ft | 355 kts | 322° |
| 2026-04-25 01:02 | -16.13413 | -47.45496 | 20202 ft | 353 kts | 322° |
| 2026-04-25 01:02 | -16.11477 | -47.47112 | 19838 ft | 352 kts | 322° |
| 2026-04-25 01:02 | -16.09568 | -47.48705 | 19492 ft | 350 kts | 322° |
| 2026-04-25 01:02 | -16.07693 | -47.50268 | 19144 ft | 350 kts | 322° |
| 2026-04-25 01:03 | -16.05796 | -47.51849 | 18796 ft | 349 kts | 322° |
| 2026-04-25 01:03 | -16.03909 | -47.53422 | 18461 ft | 348 kts | 322° |
| 2026-04-25 01:03 | -16.02024 | -47.54993 | 18073 ft | 347 kts | 322° |
| 2026-04-25 01:03 | -16.00146 | -47.56557 | 17714 ft | 345 kts | 322° |
| 2026-04-25 01:04 | -15.98281 | -47.58110 | 17368 ft | 342 kts | 322° |
| 2026-04-25 01:04 | -15.96609 | -47.59845 | 16994 ft | 341 kts | 303° |
| 2026-04-25 01:04 | -15.95701 | -47.62095 | 16696 ft | 337 kts | 282° |
| 2026-04-25 01:04 | -15.95561 | -47.64512 | 16384 ft | 335 kts | 268° |
| 2026-04-25 01:05 | -15.95704 | -47.66912 | 16061 ft | 333 kts | 266° |
| 2026-04-25 01:05 | -15.95884 | -47.69307 | 15733 ft | 331 kts | 266° |
| 2026-04-25 01:05 | -15.96065 | -47.71683 | 15413 ft | 329 kts | 266° |
| 2026-04-25 01:05 | -15.96237 | -47.74045 | 15094 ft | 327 kts | 266° |
| 2026-04-25 01:06 | -15.96400 | -47.76394 | 14778 ft | 325 kts | 266° |
| 2026-04-25 01:06 | -15.96556 | -47.78732 | 14461 ft | 324 kts | 266° |
| 2026-04-25 01:06 | -15.96708 | -47.81061 | 14139 ft | 322 kts | 267° |
| 2026-04-25 01:06 | -15.96858 | -47.83385 | 13886 ft | 321 kts | 267° |
| 2026-04-25 01:07 | -15.97006 | -47.85693 | 13541 ft | 320 kts | 267° |
| 2026-04-25 01:07 | -15.97152 | -47.87983 | 13328 ft | 313 kts | 267° |
| 2026-04-25 01:07 | -15.97294 | -47.90213 | 13188 ft | 305 kts | 267° |
| 2026-04-25 01:07 | -15.97432 | -47.92388 | 13053 ft | 297 kts | 267° |
| 2026-04-25 01:08 | -15.97566 | -47.94504 | 12936 ft | 289 kts | 267° |
| 2026-04-25 01:08 | -15.97696 | -47.96559 | 12792 ft | 281 kts | 267° |
| 2026-04-25 01:08 | -15.97822 | -47.98578 | 12540 ft | 279 kts | 267° |
| 2026-04-25 01:08 | -15.97946 | -48.00582 | 12277 ft | 277 kts | 267° |
| 2026-04-25 01:09 | -15.98068 | -48.02549 | 12008 ft | 275 kts | 267° |
| 2026-04-25 01:09 | -15.98190 | -48.04528 | 11731 ft | 274 kts | 267° |
| 2026-04-25 01:09 | -15.98312 | -48.06501 | 11441 ft | 273 kts | 267° |
| 2026-04-25 01:09 | -15.98433 | -48.08469 | 11170 ft | 272 kts | 267° |
| 2026-04-25 01:10 | -15.98553 | -48.10417 | 10905 ft | 266 kts | 267° |
| 2026-04-25 01:10 | -15.98668 | -48.12275 | 10697 ft | 252 kts | 267° |
| 2026-04-25 01:10 | -15.98778 | -48.14059 | 10422 ft | 241 kts | 268° |
| 2026-04-25 01:10 | -15.98883 | -48.15763 | 10187 ft | 231 kts | 268° |
| 2026-04-25 01:11 | -15.98829 | -48.17398 | 9920 ft | 224 kts | 290° |
| 2026-04-25 01:11 | -15.97951 | -48.18655 | 9730 ft | 215 kts | 328° |
| 2026-04-25 01:11 | -15.96633 | -48.19416 | 9545 ft | 220 kts | 335° |
| 2026-04-25 01:11 | -15.95183 | -48.19978 | 9293 ft | 223 kts | 345° |
| 2026-04-25 01:12 | -15.93663 | -48.20328 | 9068 ft | 225 kts | 350° |
| 2026-04-25 01:12 | -15.92119 | -48.20603 | 8818 ft | 225 kts | 351° |
| 2026-04-25 01:12 | -15.90563 | -48.20845 | 8430 ft | 226 kts | 355° |
| 2026-04-25 01:12 | -15.89063 | -48.20592 | 8147 ft | 218 kts | 33° |
| 2026-04-25 01:13 | -15.88105 | -48.19450 | 7930 ft | 211 kts | 71° |
| 2026-04-25 01:13 | -15.87868 | -48.17959 | 7766 ft | 210 kts | 87° |
| 2026-04-25 01:13 | -15.87809 | -48.16430 | 7570 ft | 211 kts | 88° |
| 2026-04-25 01:13 | -15.87759 | -48.14946 | 7343 ft | 200 kts | 86° |
| 2026-04-25 01:14 | -15.87678 | -48.13545 | 7133 ft | 190 kts | 86° |
| 2026-04-25 01:14 | -15.87594 | -48.12200 | 6954 ft | 185 kts | 86° |
| 2026-04-25 01:14 | -15.87511 | -48.10864 | 6777 ft | 183 kts | 86° |
| 2026-04-25 01:14 | -15.87430 | -48.09581 | 6594 ft | 173 kts | 86° |
| 2026-04-25 01:15 | -15.87353 | -48.08370 | 6384 ft | 163 kts | 86° |
| 2026-04-25 01:15 | -15.87280 | -48.07209 | 6304 ft | 161 kts | 86° |
| 2026-04-25 01:15 | -15.87209 | -48.06047 | 6220 ft | 159 kts | 86° |
| 2026-04-25 01:15 | -15.87139 | -48.04929 | 6210 ft | 156 kts | 86° |
| 2026-04-25 01:16 | -15.87091 | -48.04171 | 6216 ft | 156 kts | 86° |
| 2026-04-25 01:16 | -15.87000 | -48.02619 | 5714 ft | 165 kts | 88° |
| 2026-04-25 01:16 | -15.86961 | -48.01827 | 5412 ft | 160 kts | 87° |
| 2026-04-25 01:16 | -15.86875 | -48.00381 | 5026 ft | 145 kts | 85° |
| 2026-04-25 01:17 | -15.86813 | -47.99676 | 4832 ft | 145 kts | 85° |
| 2026-04-25 01:17 | -15.86726 | -47.98636 | 4596 ft | 148 kts | 82° |
| 2026-04-25 01:17 | -15.86648 | -47.97558 | 4460 ft | 151 kts | 83° |
| 2026-04-25 01:17 | -15.86602 | -47.96451 | 4255 ft | 154 kts | 82° |
| 2026-04-25 01:18 | -15.86533 | -47.95331 | 4010 ft | 157 kts | 82° |
| 2026-04-25 01:18 | -15.86447 | -47.94202 | 3786 ft | 155 kts | 80° |
| 2026-04-25 01:18 | -15.86371 | -47.93079 | 3563 ft | 155 kts | 81° |
| 2026-04-25 01:18 | -15.86299 | -47.92014 | 3466 ft | 131 kts | 84° |
| 2026-04-25 01:19 | -15.86260 | -47.91482 | 3463 ft | 21 kts | 86° |
| 2026-04-25 01:19 | -15.86256 | -47.91403 | 3462 ft | 25 kts | 89° |
| 2026-04-25 01:19 | -15.86256 | -47.91214 | 3467 ft | 20 kts | 91° |
| 2026-04-25 01:19 | -15.86249 | -47.91022 | 3471 ft | 32 kts | 85° |
| 2026-04-25 01:20 | -15.86270 | -47.90839 | 3477 ft | 18 kts | 121° |
| 2026-04-25 01:20 | -15.86346 | -47.90745 | 3480 ft | 15 kts | 131° |
| 2026-04-25 01:20 | -15.86447 | -47.90705 | 3480 ft | 18 kts | 175° |
| 2026-04-25 01:20 | -15.86538 | -47.90758 | 3479 ft | 17 kts | 259° |
| 2026-04-25 01:21 | -15.86617 | -47.90776 | 3476 ft | 9 kts | 176° |
| 2026-04-25 01:21 | -15.86652 | -47.90715 | 3478 ft | 15 kts | 91° |
| 2026-04-25 01:21 | -15.86650 | -47.90646 | 3481 ft | 10 kts | 86° |
| 2026-04-25 01:21 | -15.86610 | -47.90612 | 3484 ft | 14 kts | 343° |
| 2026-04-25 01:22 | -15.86522 | -47.90668 | 3481 ft | 17 kts | 306° |
| 2026-04-25 01:22 | -15.86427 | -47.90741 | 3483 ft | 20 kts | 284° |
| 2026-04-25 01:22 | -15.86431 | -47.90908 | 3478 ft | 25 kts | 265° |
| 2026-04-25 01:22 | -15.86445 | -47.91114 | 3469 ft | 31 kts | 266° |
| 2026-04-25 01:23 | -15.86461 | -47.91326 | 3467 ft | 21 kts | 268° |
| 2026-04-25 01:23 | -15.86468 | -47.91455 | 3464 ft | 24 kts | 265° |
| 2026-04-25 01:23 | -15.86480 | -47.91627 | 3463 ft | 23 kts | 265° |
| 2026-04-25 01:23 | -15.86485 | -47.91754 | 3467 ft | 12 kts | 269° |
| 2026-04-25 01:24 | -15.86543 | -47.91809 | 3469 ft | 7 kts | 183° |
| 2026-04-25 01:24 | -15.86607 | -47.91822 | 3470 ft | 7 kts | 228° |
| 2026-04-25 01:24 | -15.86638 | -47.91845 | 3470 ft | 2 kts | 191° |
| 2026-04-25 01:24 | -15.86677 | -47.91846 | 3471 ft | 7 kts | 176° |
| 2026-04-25 01:25 | -15.86696 | -47.91844 | 3471 ft | 3 kts | 175° |
| 2026-04-25 01:25 | -15.86704 | -47.91844 | 3471 ft | 1 kts | 174° |
| 2026-04-25 01:25 | -15.86707 | -47.91843 | 3471 ft | 0 kts | 176° |